createdAt,value
2023-04-16T00:01:36.021Z,87.67
2023-04-16T00:04:05.101Z,88.16
2023-04-16T00:06:33.943Z,88.41
2023-04-16T00:09:03.121Z,88.08
2023-04-16T00:11:31.814Z,87.96
2023-04-16T00:14:00.589Z,88.53
2023-04-16T00:16:29.279Z,88.72
2023-04-16T00:18:58.009Z,88.96
2023-04-16T00:21:26.705Z,89.11
2023-04-16T00:23:55.420Z,89.19
2023-04-16T00:26:24.147Z,88.79
2023-04-16T00:28:52.858Z,88.61
2023-04-16T00:31:32.821Z,88.68
2023-04-16T00:34:01.443Z,88.67
2023-04-16T00:36:30.137Z,88.31
2023-04-16T00:38:58.792Z,88.33
2023-04-16T00:41:27.814Z,88.61
2023-04-16T00:43:56.423Z,88.28
2023-04-16T00:46:26.162Z,87.97
2023-04-16T00:48:56.360Z,88.16
2023-04-16T00:51:25.067Z,87.91
2023-04-16T00:53:53.906Z,88.17
2023-04-16T00:56:24.126Z,87.53
2023-04-16T00:58:54.951Z,87.78
2023-04-16T01:01:23.686Z,87.76
2023-04-16T01:03:52.705Z,87.75
2023-04-16T01:06:21.736Z,87.72
2023-04-16T01:08:50.407Z,88.35
2023-04-16T01:11:19.098Z,88.60
2023-04-16T01:13:47.880Z,88.61
2023-04-16T01:16:16.604Z,88.63
2023-04-16T01:18:45.471Z,88.18
2023-04-16T01:21:14.134Z,88.31
2023-04-16T01:23:42.793Z,88.48
2023-04-16T01:26:11.459Z,88.33
2023-04-16T01:28:40.560Z,88.45
2023-04-16T01:31:09.422Z,88.30
2023-04-16T01:33:38.104Z,88.77
2023-04-16T01:36:07.068Z,88.94
2023-04-16T01:38:35.731Z,88.75
2023-04-16T01:41:04.397Z,89.41
2023-04-16T01:43:33.118Z,89.69
2023-04-16T01:46:27.041Z,89.40
2023-04-16T01:48:56.513Z,88.92
2023-04-16T01:51:25.263Z,88.98
2023-04-16T01:53:54.495Z,89.14
2023-04-16T01:56:23.114Z,89.03
2023-04-16T01:58:52.690Z,88.79
2023-04-16T02:01:21.940Z,88.71
2023-04-16T02:03:51.804Z,88.53
2023-04-16T02:06:20.510Z,88.16
2023-04-16T02:08:49.223Z,88.13
2023-04-16T02:11:17.878Z,88.27
2023-04-16T02:13:46.640Z,88.16
2023-04-16T02:16:15.638Z,88.37
2023-04-16T02:18:44.346Z,88.08
2023-04-16T02:21:14.045Z,88.03
2023-04-16T02:23:42.813Z,87.69
2023-04-16T02:26:13.554Z,88.12
2023-04-16T02:28:42.192Z,88.49
2023-04-16T02:31:11.157Z,88.34
2023-04-16T02:33:39.851Z,88.49
2023-04-16T02:36:10.662Z,88.79
2023-04-16T02:38:39.382Z,88.68
2023-04-16T02:41:08.048Z,88.60
2023-04-16T02:43:36.858Z,88.66
2023-04-16T02:46:06.101Z,89.09
2023-04-16T02:48:34.827Z,89.29
2023-04-16T02:51:03.609Z,89.28
2023-04-16T02:53:32.507Z,89.22
2023-04-16T02:56:01.193Z,89.36
2023-04-16T02:58:29.856Z,89.24
2023-04-16T03:00:58.634Z,88.91
2023-04-16T03:03:27.350Z,88.60
2023-04-16T03:05:56.066Z,88.79
2023-04-16T03:08:24.866Z,88.94
2023-04-16T03:10:53.561Z,88.53
2023-04-16T03:13:22.455Z,88.52
2023-04-16T03:15:51.323Z,88.57
2023-04-16T03:18:20.087Z,88.50
2023-04-16T03:20:52.421Z,89.08
2023-04-16T03:23:21.219Z,88.97
2023-04-16T03:25:49.884Z,88.59
2023-04-16T03:28:18.618Z,88.33
2023-04-16T03:30:52.726Z,88.74
2023-04-16T03:33:21.768Z,88.46
2023-04-16T03:35:57.627Z,88.57
2023-04-16T03:38:26.693Z,88.71
2023-04-16T03:40:55.580Z,88.37
2023-04-16T03:43:24.341Z,87.98
2023-04-16T03:45:53.016Z,88.07
2023-04-16T03:48:21.804Z,87.56
2023-04-16T03:50:50.508Z,87.84
2023-04-16T03:53:19.197Z,88.09
2023-04-16T03:55:53.986Z,87.90
2023-04-16T03:58:22.687Z,88.00
2023-04-16T04:00:53.473Z,88.45
2023-04-16T04:03:22.457Z,88.33
2023-04-16T04:05:51.348Z,88.20
2023-04-16T04:08:20.014Z,88.38
2023-04-16T04:10:48.744Z,88.09
2023-04-16T04:13:17.424Z,88.35
2023-04-16T04:15:46.118Z,88.35
2023-04-16T04:18:14.782Z,88.47
2023-04-16T04:20:44.562Z,88.66
2023-04-16T04:23:13.218Z,88.82
2023-04-16T04:25:41.878Z,88.63
2023-04-16T04:28:10.681Z,88.50
2023-04-16T04:30:39.372Z,88.95
2023-04-16T04:33:08.081Z,88.96
2023-04-16T04:35:36.766Z,89.46
2023-04-16T04:38:05.539Z,89.03
2023-04-16T04:40:34.228Z,89.52
2023-04-16T04:43:02.922Z,89.80
2023-04-16T04:45:32.251Z,89.56
2023-04-16T04:48:01.165Z,89.62
2023-04-16T04:50:29.827Z,89.54
2023-04-16T04:52:58.626Z,89.21
2023-04-16T04:55:27.335Z,89.39
2023-04-16T04:57:57.004Z,90.10
2023-04-16T05:00:25.657Z,90.42
2023-04-16T05:02:54.412Z,90.70
2023-04-16T05:05:23.290Z,90.89
2023-04-16T05:07:51.963Z,91.00
2023-04-16T05:10:20.794Z,90.55
2023-04-16T05:12:49.575Z,90.41
2023-04-16T05:15:18.263Z,90.24
2023-04-16T05:17:47.051Z,90.31
2023-04-16T05:20:15.872Z,90.23
2023-04-16T05:22:44.515Z,90.59
2023-04-16T05:25:13.198Z,90.31
2023-04-16T05:27:41.936Z,90.23
2023-04-16T05:30:10.988Z,90.36
2023-04-16T05:32:40.743Z,90.96
2023-04-16T05:35:09.960Z,91.00
2023-04-16T05:37:38.726Z,90.65
2023-04-16T05:40:08.517Z,91.03
2023-04-16T05:42:37.243Z,91.35
2023-04-16T05:45:06.856Z,90.99
2023-04-16T05:47:35.610Z,90.87
2023-04-16T05:50:04.557Z,90.27
2023-04-16T05:52:33.235Z,89.87
2023-04-16T05:55:02.132Z,89.89
2023-04-16T05:57:31.041Z,90.45
2023-04-16T05:59:59.716Z,90.73
2023-04-16T06:02:30.535Z,90.72
2023-04-16T06:04:59.504Z,90.76
2023-04-16T06:07:28.164Z,91.21
2023-04-16T06:09:56.846Z,91.25
2023-04-16T06:12:25.658Z,91.77
2023-04-16T06:14:54.336Z,91.80
2023-04-16T06:17:23.195Z,91.38
2023-04-16T06:19:51.911Z,91.22
2023-04-16T06:22:20.742Z,91.20
2023-04-16T06:24:49.413Z,90.43
2023-04-16T06:27:18.087Z,90.58
2023-04-16T06:29:46.806Z,90.53
2023-04-16T06:32:17.282Z,90.51
2023-04-16T06:34:46.076Z,91.00
2023-04-16T06:37:14.766Z,91.18
2023-04-16T06:39:43.537Z,90.79
2023-04-16T06:42:12.313Z,90.10
2023-04-16T06:44:41.333Z,90.26
2023-04-16T06:47:10.043Z,90.22
2023-04-16T06:49:39.962Z,89.91
2023-04-16T06:52:08.643Z,90.24
2023-04-16T06:54:37.389Z,90.57
2023-04-16T06:57:06.122Z,90.40
2023-04-16T06:59:34.810Z,90.41
2023-04-16T07:02:03.567Z,90.80
2023-04-16T07:04:32.284Z,91.18
2023-04-16T07:07:01.042Z,91.15
2023-04-16T07:09:29.757Z,90.56
2023-04-16T07:11:58.556Z,90.05
2023-04-16T07:14:27.412Z,90.66
2023-04-16T07:16:56.154Z,90.47
2023-04-16T07:19:24.937Z,90.07
2023-04-16T07:21:53.628Z,90.45
2023-04-16T07:24:22.404Z,90.20
2023-04-16T07:26:51.188Z,90.59
2023-04-16T07:29:19.898Z,91.09
2023-04-16T07:31:49.223Z,91.10
2023-04-16T07:34:18.199Z,91.61
2023-04-16T07:36:46.957Z,91.79
2023-04-16T07:39:16.010Z,91.01
2023-04-16T07:41:44.758Z,90.39
2023-04-16T07:44:13.443Z,89.68
2023-04-16T07:46:46.752Z,89.36
2023-04-16T07:49:16.029Z,89.70
2023-04-16T07:51:45.280Z,90.38
2023-04-16T07:54:13.957Z,89.53
2023-04-16T07:56:42.593Z,88.85
2023-04-16T08:01:42.911Z,88.38
2023-04-16T08:04:11.695Z,88.05
2023-04-16T08:06:40.476Z,87.83
2023-04-16T08:09:09.378Z,87.30
2023-04-16T08:11:38.260Z,86.92
2023-04-16T08:14:07.175Z,86.26
2023-04-16T08:16:35.928Z,85.42
2023-04-16T08:19:04.731Z,83.64
2023-04-16T08:21:33.860Z,83.70
2023-04-16T08:24:02.639Z,83.04
2023-04-16T08:26:31.431Z,83.32
2023-04-16T08:29:00.122Z,83.16
2023-04-16T08:31:29.049Z,82.32
2023-04-16T08:33:57.777Z,81.85
2023-04-16T08:36:26.421Z,80.30
2023-04-16T08:38:55.160Z,80.92
2023-04-16T08:41:25.027Z,80.38
2023-04-16T08:43:56.885Z,80.34
2023-04-16T08:46:26.698Z,78.80
2023-04-16T08:48:57.696Z,79.29
2023-04-16T08:51:29.976Z,77.60
2023-04-16T08:54:04.451Z,77.09
2023-04-16T08:56:36.936Z,78.08
2023-04-16T08:59:05.864Z,76.62
2023-04-16T09:01:35.855Z,75.08
2023-04-16T09:04:07.235Z,75.69
2023-04-16T09:06:37.132Z,73.64
2023-04-16T09:09:07.000Z,72.32
2023-04-16T09:11:36.092Z,74.39
2023-04-16T09:14:04.992Z,71.61
2023-04-16T09:16:34.081Z,69.12
2023-04-16T09:19:02.786Z,68.70
2023-04-16T09:21:32.330Z,71.05
2023-04-16T09:24:01.745Z,72.34
2023-04-16T09:26:31.177Z,73.41
2023-04-16T09:28:59.864Z,73.45
2023-04-16T09:31:28.615Z,73.13
2023-04-16T09:34:06.015Z,72.39
2023-04-16T09:36:36.165Z,71.96
2023-04-16T09:39:04.870Z,72.78
2023-04-16T09:41:36.218Z,71.39
2023-04-16T09:44:05.686Z,72.92
2023-04-16T09:46:36.643Z,73.32
2023-04-16T09:49:15.982Z,71.74
2023-04-16T09:51:46.608Z,71.13
2023-04-16T09:54:15.913Z,70.77
2023-04-16T09:56:46.790Z,71.11
2023-04-16T09:59:18.874Z,69.35
2023-04-16T10:01:49.858Z,70.91
2023-04-16T10:04:20.228Z,71.04
2023-04-16T10:07:05.843Z,70.32
2023-04-16T10:09:38.963Z,70.03
2023-04-16T10:12:08.570Z,70.69
2023-04-16T10:14:37.219Z,69.92
2023-04-16T10:17:06.570Z,68.33
2023-04-16T10:19:35.973Z,68.10
2023-04-16T10:22:05.499Z,65.91
2023-04-16T10:24:34.930Z,63.74
2023-04-16T10:27:03.723Z,60.53
2023-04-16T10:29:33.446Z,62.43
2023-04-16T10:32:03.659Z,61.89
2023-04-16T10:34:32.630Z,62.64
2023-04-16T10:37:01.331Z,61.63
2023-04-16T10:39:30.316Z,62.35
2023-04-16T10:42:10.538Z,63.37
2023-04-16T10:44:45.241Z,64.38
2023-04-16T10:47:14.578Z,65.31
2023-04-16T10:49:44.027Z,65.60
2023-04-16T10:52:17.458Z,66.90
2023-04-16T10:54:50.583Z,66.85
2023-04-16T10:57:20.664Z,67.87
2023-04-16T10:59:49.460Z,66.58
2023-04-16T11:02:19.628Z,66.07
2023-04-16T11:04:49.871Z,67.50
2023-04-16T11:07:21.719Z,66.31
2023-04-16T11:10:07.196Z,64.99
2023-04-16T11:12:38.446Z,65.20
2023-04-16T11:15:12.741Z,62.90
2023-04-16T11:17:44.454Z,64.04
2023-04-16T11:20:20.014Z,66.02
2023-04-16T11:22:51.518Z,65.68
2023-04-16T11:25:23.907Z,65.32
2023-04-16T11:27:53.741Z,65.79
2023-04-16T11:30:36.865Z,66.63
2023-04-16T11:33:08.643Z,66.43
2023-04-16T11:35:41.449Z,67.26
2023-04-16T11:38:10.342Z,68.48
2023-04-16T11:40:39.065Z,66.02
2023-04-16T11:43:15.909Z,65.29
2023-04-16T11:45:58.568Z,63.41
2023-04-16T11:48:52.948Z,62.18
2023-04-16T11:51:23.310Z,61.38
2023-04-16T11:53:54.124Z,63.18
2023-04-16T11:56:31.289Z,63.59
2023-04-16T11:59:10.090Z,64.42
2023-04-16T12:01:40.958Z,63.69
2023-04-16T12:04:09.902Z,64.33
2023-04-16T12:06:39.076Z,67.05
2023-04-16T12:09:27.452Z,66.73
2023-04-16T12:11:56.557Z,65.99
2023-04-16T12:14:25.236Z,67.25
2023-04-16T12:16:53.979Z,67.06
2023-04-16T12:19:22.820Z,67.92
2023-04-16T12:21:51.546Z,70.16
2023-04-16T12:24:24.910Z,70.13
2023-04-16T12:27:03.232Z,71.01
2023-04-16T12:29:32.240Z,70.39
2023-04-16T12:32:01.938Z,70.11
2023-04-16T12:34:49.000Z,70.05
2023-04-16T12:37:18.410Z,70.80
2023-04-16T12:39:48.110Z,71.40
2023-04-16T12:42:16.915Z,70.83
2023-04-16T12:44:45.945Z,71.76
2023-04-16T12:47:14.762Z,72.33
2023-04-16T12:49:44.702Z,71.99
2023-04-16T12:52:13.436Z,72.45
2023-04-16T12:54:42.144Z,71.62
2023-04-16T12:57:12.070Z,70.70
2023-04-16T12:59:40.857Z,70.73
2023-04-16T13:02:09.703Z,71.10
2023-04-16T13:04:38.689Z,72.35
2023-04-16T13:07:08.172Z,72.54
2023-04-16T13:09:39.087Z,73.18
2023-04-16T13:12:08.463Z,72.67
2023-04-16T13:14:37.772Z,73.29
2023-04-16T13:17:06.469Z,73.82
2023-04-16T13:19:35.107Z,73.23
2023-04-16T13:22:03.856Z,74.74
2023-04-16T13:24:32.617Z,76.10
2023-04-16T13:27:01.412Z,78.32
2023-04-16T13:29:30.168Z,79.91
2023-04-16T13:31:58.997Z,81.89
2023-04-16T13:34:27.708Z,82.04
2023-04-16T13:36:56.474Z,82.54
2023-04-16T13:39:25.468Z,82.73
2023-04-16T13:41:54.167Z,83.11
2023-04-16T13:44:22.835Z,83.66
2023-04-16T13:46:51.757Z,84.49
2023-04-16T13:49:20.541Z,84.81
2023-04-16T13:51:49.594Z,84.49
2023-04-16T13:54:18.288Z,84.98
2023-04-16T13:56:47.153Z,84.94
2023-04-16T13:59:16.594Z,85.27
2023-04-16T14:01:45.480Z,85.12
2023-04-16T14:04:14.384Z,85.98
2023-04-16T14:06:43.060Z,85.92
2023-04-16T14:09:12.043Z,85.59
2023-04-16T14:11:41.003Z,85.31
2023-04-16T14:14:09.715Z,85.14
2023-04-16T14:16:38.506Z,85.27
2023-04-16T14:19:07.395Z,85.71
2023-04-16T14:21:36.237Z,86.15
2023-04-16T14:24:05.692Z,85.37
2023-04-16T14:26:34.497Z,83.71
2023-04-16T14:29:03.280Z,84.00
2023-04-16T14:31:32.454Z,84.95
2023-04-16T14:34:01.339Z,84.36
2023-04-16T14:36:31.273Z,84.69
2023-04-16T14:39:00.577Z,83.38
2023-04-16T14:41:30.875Z,84.47
2023-04-16T14:43:59.688Z,84.75
2023-04-16T14:46:28.359Z,85.06
2023-04-16T14:48:57.117Z,84.57
2023-04-16T14:51:27.400Z,83.62
2023-04-16T14:53:56.588Z,84.48
2023-04-16T14:56:25.323Z,84.28
2023-04-16T14:58:53.959Z,83.82
2023-04-16T15:01:22.762Z,83.48
2023-04-16T15:03:51.608Z,83.37
2023-04-16T15:06:20.419Z,83.23
2023-04-16T15:08:49.111Z,82.45
2023-04-16T15:11:17.845Z,81.80
2023-04-16T15:13:46.579Z,81.84
2023-04-16T15:16:15.344Z,81.21
2023-04-16T15:18:44.090Z,82.41
2023-04-16T15:21:12.901Z,83.31
2023-04-16T15:23:41.790Z,84.07
2023-04-16T15:26:10.441Z,84.27
2023-04-16T15:28:39.164Z,84.21
2023-04-16T15:31:07.941Z,84.43
2023-04-16T15:33:36.927Z,84.31
2023-04-16T15:36:06.328Z,84.27
2023-04-16T15:38:35.222Z,84.25
2023-04-16T15:41:03.860Z,84.22
2023-04-16T15:43:32.529Z,83.62
2023-04-16T15:46:01.241Z,83.19
2023-04-16T15:48:29.938Z,83.54
2023-04-16T15:50:58.657Z,83.05
2023-04-16T15:53:27.982Z,83.31
2023-04-16T15:55:56.639Z,83.70
2023-04-16T15:58:25.744Z,85.04
2023-04-16T16:00:54.440Z,85.48
2023-04-16T16:03:23.333Z,85.45
2023-04-16T16:05:52.333Z,86.27
2023-04-16T16:08:21.008Z,86.05
2023-04-16T16:10:49.738Z,85.16
2023-04-16T16:13:18.466Z,85.50
2023-04-16T16:15:47.148Z,85.51
2023-04-16T16:18:16.031Z,85.68
2023-04-16T16:20:44.749Z,85.69
2023-04-16T16:23:13.411Z,86.07
2023-04-16T16:25:42.652Z,86.12
2023-04-16T16:28:11.371Z,85.66
2023-04-16T16:30:40.748Z,85.40
2023-04-16T16:33:09.532Z,85.39
2023-04-16T16:35:38.252Z,85.00
2023-04-16T16:38:06.925Z,84.84
2023-04-16T16:40:36.134Z,85.12
2023-04-16T16:43:05.038Z,85.34
2023-04-16T16:45:33.731Z,85.15
2023-04-16T16:48:03.883Z,84.79
2023-04-16T16:50:32.765Z,85.34
2023-04-16T16:53:01.579Z,84.95
2023-04-16T16:55:31.319Z,84.34
2023-04-16T16:58:00.078Z,83.92
2023-04-16T17:00:28.974Z,83.91
2023-04-16T17:02:58.136Z,83.74
2023-04-16T17:05:27.078Z,83.41
2023-04-16T17:07:55.927Z,83.65
2023-04-16T17:10:25.362Z,83.41
2023-04-16T17:12:54.192Z,83.40
2023-04-16T17:15:23.103Z,83.48
2023-04-16T17:17:51.815Z,83.79
2023-04-16T17:20:20.777Z,83.83
2023-04-16T17:22:49.483Z,84.03
2023-04-16T17:25:18.278Z,83.91
2023-04-16T17:27:46.959Z,83.77
2023-04-16T17:30:16.446Z,83.48
2023-04-16T17:32:45.224Z,83.76
2023-04-16T17:35:14.059Z,83.94
2023-04-16T17:37:42.742Z,84.12
2023-04-16T17:40:13.174Z,84.00
2023-04-16T17:42:41.854Z,84.33
2023-04-16T17:45:11.527Z,84.37
2023-04-16T17:47:40.659Z,84.04
2023-04-16T17:50:10.234Z,84.43
2023-04-16T17:52:39.014Z,84.65
2023-04-16T17:55:07.919Z,84.47
2023-04-16T17:57:37.379Z,84.34
2023-04-16T18:00:12.461Z,84.52
2023-04-16T18:02:42.124Z,84.38
2023-04-16T18:05:11.344Z,84.60
2023-04-16T18:07:40.455Z,84.93
2023-04-16T18:10:09.794Z,84.88
2023-04-16T18:12:38.543Z,84.74
2023-04-16T18:15:07.819Z,84.63
2023-04-16T18:17:36.566Z,84.64
2023-04-16T18:20:08.031Z,85.10
2023-04-16T18:22:36.701Z,85.12
2023-04-16T18:25:06.719Z,85.10
2023-04-16T18:27:35.420Z,84.86
2023-04-16T18:30:05.232Z,84.80
2023-04-16T18:32:35.120Z,85.17
2023-04-16T18:35:04.365Z,85.00
2023-04-16T18:37:33.384Z,85.20
2023-04-16T18:40:02.091Z,85.23
2023-04-16T18:42:30.787Z,84.92
2023-04-16T18:44:59.581Z,84.97
2023-04-16T18:47:28.363Z,84.93
2023-04-16T18:49:57.096Z,85.11
2023-04-16T18:52:26.071Z,85.47
2023-04-16T18:54:54.718Z,85.43
2023-04-16T18:57:23.407Z,85.50
2023-04-16T18:59:52.539Z,85.79
2023-04-16T19:02:21.418Z,86.11
2023-04-16T19:04:50.314Z,86.21
2023-04-16T19:07:18.978Z,86.37
2023-04-16T19:09:47.667Z,86.56
2023-04-16T19:12:16.365Z,86.18
2023-04-16T19:14:45.288Z,85.42
2023-04-16T19:17:14.028Z,85.04
2023-04-16T19:19:42.705Z,84.75
2023-04-16T19:22:11.440Z,85.04
2023-04-16T19:24:40.102Z,85.30
2023-04-16T19:27:08.777Z,85.10
2023-04-16T19:29:37.560Z,85.43
2023-04-16T19:32:06.318Z,84.92
2023-04-16T19:34:35.233Z,84.31
2023-04-16T19:37:03.991Z,84.51
2023-04-16T19:39:33.409Z,84.68
2023-04-16T19:42:02.188Z,84.64
2023-04-16T19:44:32.270Z,84.66
2023-04-16T19:47:01.158Z,84.29
2023-04-16T19:49:29.826Z,84.25
2023-04-16T19:51:58.499Z,84.43
2023-04-16T19:54:27.360Z,84.53
2023-04-16T19:56:57.131Z,84.52
2023-04-16T19:59:28.180Z,84.33
2023-04-16T20:01:56.876Z,84.23
2023-04-16T20:04:25.794Z,84.69
2023-04-16T20:06:54.534Z,84.80
2023-04-16T20:09:23.488Z,84.79
2023-04-16T20:11:52.282Z,84.99
2023-04-16T20:14:21.070Z,84.65
2023-04-16T20:16:49.901Z,84.81
2023-04-16T20:19:19.558Z,84.81
2023-04-16T20:21:48.234Z,84.76
2023-04-16T20:24:16.862Z,84.80
2023-04-16T20:26:45.522Z,84.47
2023-04-16T20:29:14.814Z,84.28
2023-04-16T20:31:45.957Z,84.46
2023-04-16T20:34:14.709Z,84.23
2023-04-16T20:36:43.363Z,84.81
2023-04-16T20:39:12.619Z,85.16
2023-04-16T20:41:44.310Z,85.02
2023-04-16T20:44:18.231Z,84.59
2023-04-16T20:46:49.796Z,84.53
2023-04-16T20:49:18.676Z,84.84
2023-04-16T20:51:47.354Z,84.89
2023-04-16T20:54:16.458Z,85.16
2023-04-16T20:56:45.960Z,85.16
2023-04-16T20:59:14.625Z,84.84
2023-04-16T21:01:43.322Z,84.86
2023-04-16T21:04:12.103Z,85.58
2023-04-16T21:06:42.997Z,85.32
2023-04-16T21:09:12.977Z,85.63
2023-04-16T21:11:41.858Z,85.29
2023-04-16T21:14:10.610Z,85.19
2023-04-16T21:16:39.296Z,84.92
2023-04-16T21:19:08.835Z,85.15
2023-04-16T21:21:38.954Z,85.00
2023-04-16T21:24:08.102Z,85.34
2023-04-16T21:26:37.002Z,85.07
2023-04-16T21:29:05.646Z,85.09
2023-04-16T21:31:34.377Z,85.02
2023-04-16T21:34:03.101Z,85.40
2023-04-16T21:36:33.695Z,85.40
2023-04-16T21:39:02.486Z,85.57
2023-04-16T21:41:31.152Z,84.87
2023-04-16T21:43:59.871Z,85.01
2023-04-16T21:46:28.614Z,85.06
2023-04-16T21:48:57.319Z,84.85
2023-04-16T21:51:29.145Z,85.24
2023-04-16T21:53:58.494Z,85.01
2023-04-16T21:56:27.187Z,84.89
2023-04-16T21:58:55.838Z,84.92
2023-04-16T22:01:24.545Z,84.96
2023-04-16T22:03:53.385Z,84.91
2023-04-16T22:06:22.272Z,84.99
2023-04-16T22:08:50.981Z,85.12
2023-04-16T22:11:19.716Z,84.83
2023-04-16T22:13:49.534Z,84.76
2023-04-16T22:16:18.308Z,84.76
2023-04-16T22:18:47.455Z,84.71
2023-04-16T22:21:16.274Z,84.91
2023-04-16T22:23:45.757Z,85.23
2023-04-16T22:26:14.880Z,85.29
2023-04-16T22:28:43.508Z,85.17
2023-04-16T22:31:12.270Z,85.43
2023-04-16T22:33:40.982Z,85.34
2023-04-16T22:36:09.637Z,85.26
2023-04-16T22:38:38.813Z,85.38
2023-04-16T22:41:07.482Z,85.05
2023-04-16T22:43:37.157Z,85.13
2023-04-16T22:46:06.996Z,84.81
2023-04-16T22:48:38.236Z,84.92
2023-04-16T22:51:09.712Z,84.90
2023-04-16T22:53:38.555Z,85.11
2023-04-16T22:56:07.423Z,84.92
2023-04-16T22:58:36.081Z,83.93
2023-04-16T23:01:04.880Z,84.27
2023-04-16T23:03:33.783Z,84.39
2023-04-16T23:06:03.935Z,84.44
2023-04-16T23:08:32.602Z,84.26
2023-04-16T23:11:01.245Z,84.51
2023-04-16T23:13:29.911Z,84.46
2023-04-16T23:15:58.920Z,84.18
2023-04-16T23:18:27.556Z,84.34
2023-04-16T23:20:56.509Z,84.61
2023-04-16T23:23:25.200Z,84.63
2023-04-16T23:25:54.253Z,84.85
2023-04-16T23:28:22.948Z,84.46
2023-04-16T23:30:52.824Z,84.57
2023-04-16T23:33:22.106Z,84.94
2023-04-16T23:35:50.868Z,84.75
2023-04-16T23:38:19.590Z,84.62
2023-04-16T23:40:48.285Z,84.87
2023-04-16T23:43:16.996Z,84.83
2023-04-16T23:45:45.885Z,84.55
2023-04-16T23:48:14.615Z,84.94
2023-04-16T23:50:43.283Z,85.04
2023-04-16T23:53:12.062Z,84.93
2023-04-16T23:55:40.751Z,84.70
2023-04-16T23:58:09.488Z,84.49
